Time;durP1;ratioP1;P1;durP2;ratioP2;P2;SDS_P1;SDS_P2;PMS_P1;PMS_P2;Temp;Humidity;BMP_temperature;BMP_pressure;BME280_temperature;BME280_humidity;BME280_pressure;Samples;Min_cycle;Max_cycle;Signal;HPM_P1;HPM_P2
2022/03/24 00:00:46;;;;;;;12.70;8.27;;;10.20;54.20;;;;;;5030266;28;20169;-81
2022/03/24 00:03:14;;;;;;;12.60;8.27;;;10.10;54.50;;;;;;5051006;28;20483;-82
2022/03/24 00:05:40;;;;;;;12.90;7.83;;;10.10;54.70;;;;;;5048880;28;20195;-82
2022/03/24 00:08:08;;;;;;;10.53;7.77;;;10.10;54.70;;;;;;5034660;28;20182;-81
2022/03/24 00:10:35;;;;;;;10.80;7.83;;;10.10;55.00;;;;;;5036067;28;20224;-83
2022/03/24 00:13:03;;;;;;;11.00;7.70;;;10.00;55.00;;;;;;5053273;28;20260;-82
2022/03/24 00:15:28;;;;;;;12.37;8.90;;;10.00;55.10;;;;;;5048462;28;20190;-79
2022/03/24 00:17:54;;;;;;;11.43;8.53;;;10.00;55.50;;;;;;5053330;28;20196;-79
2022/03/24 00:20:24;;;;;;;13.77;8.43;;;9.90;56.30;;;;;;5045343;28;20206;-74
2022/03/24 00:22:50;;;;;;;13.90;8.67;;;9.90;56.50;;;;;;5050331;28;20284;-74
2022/03/24 00:25:15;;;;;;;11.47;8.33;;;9.90;56.70;;;;;;5039920;28;20312;-82
2022/03/24 00:27:41;;;;;;;12.60;8.50;;;9.90;56.90;;;;;;5047974;28;20170;-69
2022/03/24 00:30:12;;;;;;;12.40;8.13;;;9.80;57.20;;;;;;5045475;28;20209;-82
2022/03/24 00:32:38;;;;;;;9.83;7.53;;;9.80;57.30;;;;;;5051505;28;20194;-79
2022/03/24 00:35:04;;;;;;;14.27;8.00;;;9.80;57.50;;;;;;5063059;28;20185;-81
2022/03/24 00:37:32;;;;;;;13.93;8.40;;;9.80;57.90;;;;;;5045019;28;20205;-79
2022/03/24 00:40:06;;;;;;;11.30;8.27;;;9.80;58.20;;;;;;5045788;28;20217;-80
2022/03/24 00:42:32;;;;;;;12.17;8.50;;;9.70;58.10;;;;;;5047671;28;20174;-82
2022/03/24 00:44:57;;;;;;;13.90;8.57;;;9.70;58.30;;;;;;5049247;28;20263;-80
2022/03/24 00:47:25;;;;;;;11.53;8.17;;;9.70;58.70;;;;;;5044862;28;20181;-78
2022/03/24 00:49:56;;;;;;;12.43;8.37;;;9.60;59.00;;;;;;5047664;28;20267;-73
2022/03/24 00:52:24;;;;;;;11.37;7.57;;;9.60;59.20;;;;;;5045939;28;20162;-78
2022/03/24 00:54:49;;;;;;;12.33;8.00;;;9.50;59.20;;;;;;5047216;28;20197;-81
2022/03/24 00:57:15;;;;;;;11.80;8.00;;;9.50;59.10;;;;;;5048781;28;20197;-78
2022/03/24 00:59:43;;;;;;;11.63;8.13;;;9.40;59.30;;;;;;5044842;28;20271;-81
2022/03/24 01:02:09;;;;;;;10.83;7.93;;;9.40;59.50;;;;;;5051308;28;20170;-81
2022/03/24 01:04:40;;;;;;;12.50;8.37;;;9.40;59.70;;;;;;5048697;28;20198;-82
2022/03/24 01:07:05;;;;;;;11.67;8.40;;;9.30;60.10;;;;;;5049543;28;20173;-77
2022/03/24 01:09:31;;;;;;;10.93;8.00;;;9.30;60.90;;;;;;5042789;28;20174;-79
2022/03/24 01:11:56;;;;;;;13.23;8.20;;;9.20;60.50;;;;;;5050241;28;20283;-82
2022/03/24 01:14:25;;;;;;;9.73;7.63;;;9.20;61.60;;;;;;5043477;28;20189;-74
2022/03/24 01:16:51;;;;;;;12.17;8.10;;;9.10;61.00;;;;;;5051423;28;20223;-79
2022/03/24 01:19:19;;;;;;;13.30;8.27;;;9.10;61.60;;;;;;5042914;28;20205;-80
2022/03/24 01:21:50;;;;;;;12.73;8.57;;;9.10;61.70;;;;;;5045702;28;20193;-81
2022/03/24 01:24:18;;;;;;;10.27;8.07;;;9.00;62.80;;;;;;5053005;28;20229;-81
2022/03/24 01:26:49;;;;;;;10.80;7.80;;;9.00;62.60;;;;;;5052375;28;20177;-79
2022/03/24 01:29:21;;;;;;;15.43;7.90;;;9.00;63.50;;;;;;5044846;28;20197;-78
2022/03/24 01:31:47;;;;;;;11.63;7.83;;;9.00;63.70;;;;;;5035286;28;20213;-76
2022/03/24 01:34:13;;;;;;;11.63;7.97;;;8.90;63.50;;;;;;5046878;28;20185;-81
2022/03/24 01:39:19;;;;;;;13.17;7.80;;;8.90;64.80;;;;;;5506267;23;20334;-78
2022/03/24 01:41:45;;;;;;;12.50;7.83;;;8.90;64.80;;;;;;5052970;28;20238;-76
2022/03/24 01:44:12;;;;;;;13.70;8.27;;;8.90;65.10;;;;;;5024277;28;20247;-80
2022/03/24 01:46:56;;;;;;;13.37;8.43;;;8.90;65.40;;;;;;5059021;28;20263;-75
2022/03/24 01:49:31;;;;;;;11.63;8.07;;;8.80;65.70;;;;;;5056347;28;20260;-72
2022/03/24 01:51:59;;;;;;;11.37;7.67;;;8.80;66.30;;;;;;5056199;28;20274;-78
2022/03/24 01:54:30;;;;;;;11.03;7.80;;;8.70;66.60;;;;;;5052058;28;20187;-81
2022/03/24 01:56:57;;;;;;;12.93;7.90;;;8.70;67.10;;;;;;5063699;28;20211;-77
2022/03/24 01:59:25;;;;;;;12.60;8.17;;;8.70;66.80;;;;;;5068362;28;20344;-81
2022/03/24 02:01:51;;;;;;;10.67;7.37;;;8.60;67.10;;;;;;5054653;28;20184;-80
2022/03/24 02:04:21;;;;;;;11.37;8.03;;;8.60;67.20;;;;;;5059249;28;20217;-74
2022/03/24 02:09:26;;;;;;;10.63;8.03;;;8.60;68.30;;;;;;5342941;22;20318;-81
2022/03/24 02:11:52;;;;;;;11.73;8.30;;;8.50;69.00;;;;;;5020575;28;20198;-81
2022/03/24 02:14:20;;;;;;;11.67;8.57;;;8.50;69.30;;;;;;5015918;28;20218;-81
2022/03/24 02:16:48;;;;;;;11.23;7.97;;;8.40;69.70;;;;;;5015411;28;20180;-81
2022/03/24 02:19:21;;;;;;;10.50;7.97;;;8.40;70.20;;;;;;5014698;28;20211;-80
2022/03/24 02:21:51;;;;;;;11.20;7.80;;;8.40;71.30;;;;;;5012991;28;20178;-82
2022/03/24 02:24:21;;;;;;;12.10;8.30;;;8.30;71.30;;;;;;5006648;28;20183;-81
2022/03/24 02:26:50;;;;;;;12.30;8.60;;;8.30;72.70;;;;;;5013968;28;20234;-82
2022/03/24 03:03:52;;;;;;;11.57;6.80;;;7.90;77.70;;;;;;5011617;28;20264;-80
2022/03/24 03:06:23;;;;;;;10.40;7.53;;;7.90;77.90;;;;;;5022646;23;20247;-77
2022/03/24 03:08:49;;;;;;;12.53;7.70;;;7.80;75.40;;;;;;4994917;28;20219;-79
2022/03/24 03:11:22;;;;;;;11.53;8.03;;;7.80;76.10;;;;;;4994572;28;20217;-76
2022/03/24 03:13:52;;;;;;;10.30;7.80;;;7.80;77.90;;;;;;4983197;28;21101;-80
2022/03/24 03:16:17;;;;;;;10.33;7.97;;;7.80;76.70;;;;;;4929205;29;20201;-79
2022/03/24 03:18:48;;;;;;;11.53;8.10;;;7.70;77.10;;;;;;4933881;28;20198;-80
2022/03/24 03:21:16;;;;;;;10.83;7.83;;;7.70;78.40;;;;;;4942662;29;20188;-80
2022/03/24 03:23:43;;;;;;;12.00;8.63;;;7.70;77.80;;;;;;4945868;28;20192;-76
2022/03/24 03:26:11;;;;;;;12.37;8.50;;;7.70;78.80;;;;;;4946076;28;20209;-80
2022/03/24 03:28:37;;;;;;;11.80;8.80;;;7.70;80.70;;;;;;4947516;29;20248;-81
2022/03/24 03:31:05;;;;;;;12.03;8.10;;;7.60;80.10;;;;;;4937698;29;20213;-77
2022/03/24 03:33:36;;;;;;;12.87;8.40;;;7.60;80.30;;;;;;4937702;29;20206;-81
2022/03/24 03:36:04;;;;;;;11.80;8.10;;;7.50;82.30;;;;;;4937378;29;20248;-80
2022/03/24 03:38:30;;;;;;;13.67;8.40;;;7.50;81.20;;;;;;4937420;29;20288;-74
2022/03/24 03:40:56;;;;;;;12.67;8.17;;;7.50;81.10;;;;;;4935651;29;20250;-79
2022/03/24 03:43:23;;;;;;;11.53;8.13;;;7.50;81.40;;;;;;4942509;29;20272;-80
2022/03/24 03:45:49;;;;;;;10.87;7.57;;;7.40;81.50;;;;;;4971217;28;20210;-80
2022/03/24 03:48:15;;;;;;;10.73;8.03;;;7.40;82.10;;;;;;4980115;28;20190;-81
2022/03/24 03:50:43;;;;;;;9.57;7.33;;;7.40;82.50;;;;;;4975845;28;20177;-73
2022/03/24 03:53:13;;;;;;;11.70;8.27;;;7.40;82.50;;;;;;4972412;28;20239;-81
2022/03/24 03:55:42;;;;;;;11.13;7.63;;;7.40;82.60;;;;;;4967464;28;20185;-81
2022/03/24 03:58:07;;;;;;;10.87;7.47;;;7.40;83.80;;;;;;4975516;28;20183;-81
2022/03/24 04:03:24;;;;;;;10.77;7.03;;;7.40;84.10;;;;;;4969350;28;20248;-80
2022/03/24 04:06:00;;;;;;;10.20;7.17;;;7.30;82.70;;;;;;5000514;28;20201;-79
2022/03/24 04:08:29;;;;;;;12.10;8.03;;;7.30;84.40;;;;;;4993869;28;20188;-79
2022/03/24 04:10:55;;;;;;;11.90;7.60;;;7.30;83.50;;;;;;4993910;28;20243;-80
2022/03/24 04:13:23;;;;;;;12.33;8.27;;;7.30;83.70;;;;;;4987490;28;20269;-79
2022/03/24 04:15:54;;;;;;;9.73;7.10;;;7.20;84.80;;;;;;4993375;28;20191;-81
2022/03/24 04:18:23;;;;;;;9.27;7.23;;;7.20;84.50;;;;;;4983921;28;20204;-80
2022/03/24 04:20:49;;;;;;;13.67;8.10;;;7.20;85.20;;;;;;4979869;28;20200;-80
2022/03/24 04:23:15;;;;;;;12.53;7.67;;;7.20;84.50;;;;;;4982528;28;20195;-79
2022/03/24 04:25:41;;;;;;;11.10;7.70;;;7.20;84.90;;;;;;4991063;28;20210;-80
2022/03/24 04:28:09;;;;;;;12.90;9.00;;;7.10;85.00;;;;;;4993538;28;20192;-73
2022/03/24 04:30:35;;;;;;;12.77;9.67;;;7.10;85.30;;;;;;4989844;28;20186;-78
2022/03/24 04:33:04;;;;;;;13.73;9.00;;;7.10;86.00;;;;;;4991534;28;20183;-81
2022/03/24 04:35:31;;;;;;;11.67;7.97;;;7.00;86.50;;;;;;5003343;28;20194;-80
2022/03/24 04:38:04;;;;;;;10.50;7.77;;;7.00;86.50;;;;;;5007056;28;20213;-79
2022/03/24 04:40:32;;;;;;;11.83;8.50;;;7.00;86.50;;;;;;4994835;28;20198;-80
2022/03/24 04:43:00;;;;;;;13.53;8.23;;;6.90;87.20;;;;;;4995006;28;20194;-81
2022/03/24 04:45:27;;;;;;;13.43;8.67;;;6.90;87.20;;;;;;4980462;28;20196;-79
2022/03/24 04:47:52;;;;;;;15.07;9.30;;;6.80;87.60;;;;;;4962490;28;20260;-80
2022/03/24 04:50:18;;;;;;;11.50;8.07;;;6.80;87.90;;;;;;4974100;28;20219;-81
2022/03/24 04:52:49;;;;;;;12.03;8.90;;;6.80;88.20;;;;;;4970910;28;20176;-78
2022/03/24 04:55:15;;;;;;;20.73;15.40;;;6.80;88.80;;;;;;4969500;28;20184;-77
2022/03/24 04:57:42;;;;;;;24.90;17.93;;;6.80;89.00;;;;;;4968083;28;20216;-77
2022/03/24 05:00:12;;;;;;;17.27;12.10;;;6.80;89.10;;;;;;4973851;28;20218;-81
2022/03/24 05:02:39;;;;;;;14.67;10.00;;;6.80;89.30;;;;;;4969876;28;20223;-80
2022/03/24 05:05:06;;;;;;;14.70;9.23;;;6.80;88.80;;;;;;4968477;28;20279;-78
2022/03/24 05:07:34;;;;;;;13.73;8.70;;;6.80;88.90;;;;;;4974713;28;20188;-78
2022/03/24 05:10:02;;;;;;;13.00;8.80;;;6.80;89.10;;;;;;4974117;28;20200;-81
2022/03/24 05:12:30;;;;;;;13.60;8.90;;;6.70;89.10;;;;;;4973231;28;20187;-78
2022/03/24 05:14:56;;;;;;;12.20;7.83;;;6.70;89.00;;;;;;4962061;28;20193;-79
2022/03/24 05:17:22;;;;;;;12.63;8.17;;;6.80;89.10;;;;;;4958634;29;20192;-79
2022/03/24 05:19:48;;;;;;;12.37;8.27;;;6.80;89.40;;;;;;4956346;28;20208;-79
2022/03/24 05:22:15;;;;;;;24.63;17.13;;;6.80;89.80;;;;;;4959313;29;20208;-81
2022/03/24 05:24:43;;;;;;;21.80;14.27;;;6.80;89.90;;;;;;4958774;29;20184;-80
2022/03/24 05:27:11;;;;;;;15.87;11.53;;;6.80;89.40;;;;;;4959035;28;20187;-76
2022/03/24 05:29:39;;;;;;;16.27;10.20;;;6.80;89.10;;;;;;4958108;29;20187;-77
2022/03/24 05:32:06;;;;;;;15.30;10.00;;;6.80;90.00;;;;;;4959146;29;20187;-78
2022/03/24 05:34:32;;;;;;;13.73;8.93;;;6.80;89.20;;;;;;4958096;29;20287;-77
2022/03/24 05:37:00;;;;;;;15.87;9.17;;;6.80;90.00;;;;;;4960406;28;20194;-74
2022/03/24 05:39:26;;;;;;;17.87;9.93;;;6.80;89.40;;;;;;4955579;29;20189;-76
2022/03/24 05:41:52;;;;;;;13.13;8.90;;;6.80;90.20;;;;;;4945687;28;20267;-80
2022/03/24 05:44:17;;;;;;;13.87;9.03;;;6.80;89.80;;;;;;4959022;28;20227;-79
2022/03/24 05:46:45;;;;;;;13.73;9.43;;;6.80;90.00;;;;;;4958216;28;20219;-79
2022/03/24 05:49:16;;;;;;;15.67;8.87;;;6.70;90.50;;;;;;4958430;28;20169;-80
2022/03/24 05:51:43;;;;;;;17.13;9.10;;;6.70;90.90;;;;;;4957280;28;20218;-78
2022/03/24 05:54:10;;;;;;;15.17;9.63;;;6.70;90.50;;;;;;4945595;29;20247;-81
2022/03/24 05:56:36;;;;;;;15.40;9.67;;;6.60;90.90;;;;;;4958440;28;20539;-79
2022/03/24 05:59:07;;;;;;;14.10;9.40;;;6.60;90.90;;;;;;4949349;29;20193;-80
2022/03/24 06:01:39;;;;;;;14.67;9.13;;;6.50;91.30;;;;;;4958224;29;20197;-81
2022/03/24 06:04:08;;;;;;;14.23;9.17;;;6.50;91.20;;;;;;4957733;28;20427;-80
2022/03/24 06:06:37;;;;;;;14.57;8.70;;;6.50;91.00;;;;;;4957660;29;20193;-80
2022/03/24 06:09:07;;;;;;;13.30;9.43;;;6.50;91.00;;;;;;4958485;28;20185;-72
2022/03/24 06:11:35;;;;;;;13.17;8.60;;;6.50;91.50;;;;;;4958252;29;20191;-77
2022/03/24 06:14:12;;;;;;;13.80;9.23;;;6.50;91.20;;;;;;4958530;28;20204;-80
2022/03/24 06:16:41;;;;;;;17.73;9.33;;;6.50;91.70;;;;;;4950147;28;20291;-81
2022/03/24 06:19:10;;;;;;;15.93;9.80;;;6.50;92.10;;;;;;4958140;28;20197;-75
2022/03/24 06:21:39;;;;;;;15.10;9.33;;;6.50;92.00;;;;;;4954683;28;20194;-77
2022/03/24 06:24:09;;;;;;;14.80;9.17;;;6.60;92.20;;;;;;4940459;29;20181;-79
2022/03/24 06:26:35;;;;;;;14.90;9.33;;;6.60;92.20;;;;;;4958201;29;20186;-79
2022/03/24 06:29:03;;;;;;;12.97;8.63;;;6.60;92.30;;;;;;4957908;28;20189;-74
2022/03/24 06:31:31;;;;;;;14.30;9.80;;;6.70;92.30;;;;;;4950450;29;20173;-78
2022/03/24 06:33:57;;;;;;;15.33;9.50;;;6.70;92.90;;;;;;4941106;29;20281;-76
2022/03/24 06:36:23;;;;;;;12.80;9.13;;;6.80;92.60;;;;;;4958172;28;20195;-79
2022/03/24 06:38:49;;;;;;;12.47;8.83;;;6.80;92.50;;;;;;4953813;28;20205;-75
2022/03/24 06:41:15;;;;;;;13.00;9.43;;;6.90;92.60;;;;;;4938919;29;20170;-82
2022/03/24 06:43:42;;;;;;;15.87;9.27;;;7.00;92.60;;;;;;4957693;29;20199;-80
2022/03/24 06:46:10;;;;;;;15.50;9.43;;;7.00;93.00;;;;;;4957533;28;20283;-75
2022/03/24 06:48:38;;;;;;;16.23;10.37;;;7.10;93.20;;;;;;4956921;29;20183;-81
2022/03/24 06:51:06;;;;;;;15.97;11.03;;;7.20;93.40;;;;;;4962046;28;20351;-76
2022/03/24 06:53:34;;;;;;;16.33;10.87;;;7.30;93.70;;;;;;4967555;28;20187;-77
2022/03/24 06:56:06;;;;;;;13.57;10.47;;;7.30;93.70;;;;;;4957223;29;20169;-81
2022/03/24 06:58:35;;;;;;;15.63;9.80;;;7.40;93.90;;;;;;4957346;28;20176;-77
2022/03/24 07:01:01;;;;;;;16.53;11.13;;;7.50;93.50;;;;;;4953476;28;20181;-77
2022/03/24 07:03:31;;;;;;;14.67;10.60;;;7.60;93.80;;;;;;4955067;28;20260;-76
2022/03/24 07:05:57;;;;;;;15.20;10.20;;;7.70;94.10;;;;;;4954333;29;20170;-80
2022/03/24 07:08:23;;;;;;;15.93;11.03;;;7.70;93.60;;;;;;4956980;28;20179;-80
2022/03/24 07:10:49;;;;;;;14.23;9.80;;;7.80;93.90;;;;;;4956982;29;20177;-80
2022/03/24 07:13:16;;;;;;;16.77;11.33;;;7.90;93.70;;;;;;4943919;28;20187;-81
2022/03/24 07:15:42;;;;;;;17.50;10.83;;;8.00;94.30;;;;;;4961040;28;20224;-82
2022/03/24 07:18:10;;;;;;;18.53;11.80;;;8.00;94.10;;;;;;4973018;28;20177;-79
2022/03/24 07:20:37;;;;;;;15.00;10.43;;;8.10;94.00;;;;;;4982139;28;20209;-74
2022/03/24 07:23:03;;;;;;;13.80;10.37;;;8.20;94.10;;;;;;4983235;28;20416;-80
2022/03/24 07:25:36;;;;;;;15.00;11.33;;;8.30;94.10;;;;;;4975544;28;20202;-78
2022/03/24 07:28:05;;;;;;;16.83;11.10;;;8.40;94.90;;;;;;4976854;28;20175;-79
2022/03/24 07:30:30;;;;;;;14.80;11.43;;;8.40;94.60;;;;;;4975656;28;20192;-77
2022/03/24 07:33:00;;;;;;;16.10;11.50;;;8.50;94.20;;;;;;4972890;28;20296;-82
2022/03/24 07:35:32;;;;;;;15.90;10.77;;;8.60;94.20;;;;;;4972864;28;20464;-73
2022/03/24 07:37:58;;;;;;;14.73;10.63;;;8.80;94.20;;;;;;4975567;28;20233;-79
2022/03/24 07:40:29;;;;;;;15.77;10.83;;;8.80;93.90;;;;;;4972924;28;20452;-80
2022/03/24 07:42:57;;;;;;;16.70;11.57;;;8.90;93.80;;;;;;4975836;28;20191;-77
2022/03/24 07:45:26;;;;;;;16.37;11.60;;;9.00;94.00;;;;;;4976832;28;20184;-78
2022/03/24 07:48:14;;;;;;;18.47;11.83;;;9.10;94.10;;;;;;4975739;28;20190;-76
2022/03/24 07:50:45;;;;;;;14.63;10.80;;;9.20;94.60;;;;;;4975988;28;20203;-80
2022/03/24 07:53:14;;;;;;;15.00;11.23;;;9.30;94.00;;;;;;4975333;28;20179;-79
2022/03/24 07:55:42;;;;;;;14.50;10.97;;;9.40;94.10;;;;;;4971564;28;20311;-78
2022/03/24 07:58:11;;;;;;;14.70;11.40;;;9.40;93.70;;;;;;4975408;28;20183;-76
2022/03/24 08:00:39;;;;;;;17.27;11.17;;;9.50;93.50;;;;;;4975514;28;20219;-80
2022/03/24 08:03:13;;;;;;;15.23;11.37;;;9.60;93.60;;;;;;4975487;28;20203;-80
2022/03/24 08:05:39;;;;;;;15.93;11.50;;;9.70;93.70;;;;;;4968454;28;20184;-81
2022/03/24 08:08:09;;;;;;;17.10;11.00;;;9.80;93.50;;;;;;4956329;29;20201;-81
2022/03/24 08:10:37;;;;;;;16.20;11.13;;;9.90;93.50;;;;;;4973264;28;20180;-82
2022/03/24 08:13:05;;;;;;;16.27;11.53;;;10.00;92.90;;;;;;4974388;28;20203;-80
2022/03/24 08:15:34;;;;;;;16.07;11.53;;;10.10;92.70;;;;;;4974828;28;20211;-76
2022/03/24 08:18:00;;;;;;;16.37;11.07;;;10.20;92.60;;;;;;4956204;29;20185;-79
2022/03/24 08:20:28;;;;;;;16.93;12.10;;;10.30;92.60;;;;;;4974554;28;20292;-81
2022/03/24 08:22:54;;;;;;;16.27;11.67;;;10.40;92.60;;;;;;4975407;28;20180;-81
2022/03/24 08:25:20;;;;;;;18.63;11.93;;;10.50;92.30;;;;;;4975236;28;20172;-81
2022/03/24 08:27:46;;;;;;;16.90;11.90;;;10.60;92.20;;;;;;4971588;28;20197;-81
2022/03/24 08:30:14;;;;;;;17.83;12.73;;;10.70;92.10;;;;;;4975184;28;20195;-78
2022/03/24 08:32:41;;;;;;;17.50;12.77;;;10.80;92.10;;;;;;4973778;28;20231;-81
2022/03/24 08:35:07;;;;;;;18.63;13.20;;;10.90;92.00;;;;;;4975039;28;20224;-79
2022/03/24 08:37:36;;;;;;;19.63;13.17;;;11.10;91.90;;;;;;4974790;28;20220;-82
2022/03/24 08:40:02;;;;;;;17.13;12.70;;;11.20;91.80;;;;;;4974816;28;20291;-81
2022/03/24 08:42:28;;;;;;;17.67;12.70;;;11.30;91.70;;;;;;4974961;28;20191;-77
2022/03/24 08:44:56;;;;;;;16.63;12.83;;;11.40;91.50;;;;;;4972766;28;20205;-80
2022/03/24 08:47:22;;;;;;;19.40;12.97;;;11.50;91.40;;;;;;4971012;28;20169;-82
2022/03/24 08:49:48;;;;;;;18.37;13.03;;;11.60;91.30;;;;;;4974581;28;20425;-81
2022/03/24 08:52:14;;;;;;;19.83;12.73;;;11.70;91.10;;;;;;4974968;28;20195;-81
2022/03/24 08:54:39;;;;;;;17.02;12.73;;;11.80;90.90;;;;;;4974765;28;20176;-79
2022/03/24 08:57:08;;;;;;;18.98;13.15;;;11.90;90.60;;;;;;4974118;28;20214;-79
2022/03/24 08:59:36;;;;;;;20.13;13.48;;;12.00;90.40;;;;;;4970390;28;20195;-81
2022/03/24 09:02:04;;;;;;;17.85;12.65;;;12.10;90.30;;;;;;4974195;28;20200;-80
2022/03/24 09:04:30;;;;;;;20.38;13.93;;;12.30;90.20;;;;;;4973751;28;20199;-80
2022/03/24 09:06:56;;;;;;;21.23;14.65;;;12.40;90.10;;;;;;4974919;28;20175;-81
2022/03/24 09:09:24;;;;;;;26.15;17.17;;;12.50;89.90;;;;;;4962113;28;20192;-83
2022/03/24 09:11:50;;;;;;;24.75;15.65;;;12.60;88.70;;;;;;4965343;28;20183;-81
2022/03/24 09:14:16;;;;;;;22.30;15.52;;;12.70;88.70;;;;;;4974578;28;20216;-81
2022/03/24 09:16:42;;;;;;;21.85;15.90;;;12.90;88.40;;;;;;4970058;28;20255;-80
2022/03/24 09:19:08;;;;;;;21.38;15.90;;;13.00;88.00;;;;;;4973964;28;20188;-76
2022/03/24 09:21:36;;;;;;;25.90;16.65;;;13.10;87.50;;;;;;4974528;28;20182;-81
2022/03/24 09:24:02;;;;;;;26.70;15.93;;;13.20;87.10;;;;;;4974429;28;20192;-81
2022/03/24 09:26:30;;;;;;;22.83;15.93;;;13.30;86.90;;;;;;4974238;28;20219;-78
2022/03/24 09:28:59;;;;;;;23.05;16.23;;;13.40;86.50;;;;;;4974250;28;20190;-79
2022/03/24 09:31:30;;;;;;;24.88;17.63;;;13.60;85.40;;;;;;4974617;28;20214;-81
2022/03/24 09:33:58;;;;;;;22.90;16.45;;;13.70;85.40;;;;;;4975055;28;20180;-78
2022/03/24 09:36:27;;;;;;;23.88;15.70;;;13.80;85.20;;;;;;4974544;28;20207;-81
2022/03/24 09:38:56;;;;;;;19.88;15.15;;;14.00;84.80;;;;;;4974498;28;20207;-76
2022/03/24 09:41:26;;;;;;;22.15;15.63;;;14.10;84.20;;;;;;4974817;28;20199;-78
2022/03/24 09:43:52;;;;;;;22.80;16.10;;;14.30;83.90;;;;;;4974389;28;20219;-79
2022/03/24 09:46:19;;;;;;;21.00;15.77;;;14.40;83.50;;;;;;4974077;28;20183;-76
2022/03/24 09:48:45;;;;;;;28.20;17.38;;;14.60;83.30;;;;;;4974445;28;20187;-80
2022/03/24 09:51:11;;;;;;;24.13;16.65;;;14.70;83.00;;;;;;4973389;28;20271;-77
2022/03/24 09:53:40;;;;;;;24.95;18.48;;;15.10;82.10;;;;;;4973562;28;20259;-81
2022/03/24 09:56:09;;;;;;;22.77;16.25;;;15.70;78.30;;;;;;4957791;28;20205;-78
2022/03/24 09:58:35;;;;;;;21.27;15.65;;;16.40;78.80;;;;;;4972608;28;20276;-81
2022/03/24 10:01:01;;;;;;;24.00;15.90;;;17.10;77.50;;;;;;4977845;28;20315;-83
2022/03/24 10:03:27;;;;;;;23.10;16.60;;;17.80;75.50;;;;;;4978165;28;20232;-79
2022/03/24 10:06:13;;;;;;;26.25;17.00;;;18.40;73.60;;;;;;4960564;28;20180;-79
2022/03/24 10:08:38;;;;;;;22.13;16.92;;;19.00;67.50;;;;;;4977430;28;20211;-80
2022/03/24 10:11:07;;;;;;;22.50;16.45;;;19.50;70.00;;;;;;4975056;28;20247;-82
2022/03/24 10:13:53;;;;;;;21.00;16.58;;;19.90;68.10;;;;;;4966742;28;20208;-75
2022/03/24 10:16:40;;;;;;;22.17;17.48;;;20.30;64.50;;;;;;4976617;28;20207;-82
2022/03/24 10:19:18;;;;;;;22.80;16.98;;;20.70;63.00;;;;;;4977559;28;20290;-83
2022/03/24 10:21:49;;;;;;;25.10;17.48;;;20.90;61.80;;;;;;4978265;28;20207;-70
2022/03/24 10:24:22;;;;;;;23.45;17.55;;;21.20;60.70;;;;;;4977786;28;20172;-70
2022/03/24 10:27:05;;;;;;;24.58;18.65;;;21.40;61.50;;;;;;4977547;28;20192;-71
2022/03/24 10:29:37;;;;;;;21.98;17.20;;;21.60;58.80;;;;;;4965738;28;20251;-70
2022/03/24 10:32:09;;;;;;;20.92;17.05;;;21.80;59.20;;;;;;4977871;28;20204;-71
2022/03/24 10:34:39;;;;;;;23.30;18.23;;;21.90;57.90;;;;;;4974436;28;20180;-71
2022/03/24 10:37:19;;;;;;;24.50;19.48;;;22.10;58.00;;;;;;4977301;28;20275;-71
2022/03/24 10:40:03;;;;;;;25.33;19.02;;;22.10;56.60;;;;;;4977669;28;20286;-71
2022/03/24 10:42:31;;;;;;;24.45;18.52;;;22.20;54.20;;;;;;4990199;28;20195;-71
2022/03/24 10:45:23;;;;;;;21.98;17.50;;;22.30;55.30;;;;;;4981784;28;20184;-69
2022/03/24 10:47:52;;;;;;;21.70;17.33;;;22.40;53.40;;;;;;4971483;28;20188;-68
2022/03/24 10:50:37;;;;;;;22.95;18.63;;;22.60;54.70;;;;;;4977353;28;20212;-71
2022/03/24 10:53:02;;;;;;;22.10;17.98;;;22.70;52.90;;;;;;4976453;28;20323;-71
2022/03/24 10:55:43;;;;;;;25.95;19.52;;;22.80;55.00;;;;;;4975984;28;20191;-68
2022/03/24 10:58:32;;;;;;;25.85;19.48;;;22.90;52.70;;;;;;4965642;28;20202;-71
2022/03/24 11:01:03;;;;;;;24.17;18.73;;;22.90;53.60;;;;;;4973255;28;20196;-71
2022/03/24 11:03:29;;;;;;;25.35;20.15;;;22.90;53.60;;;;;;4976737;28;20176;-70
2022/03/24 11:06:18;;;;;;;24.52;19.65;;;23.00;53.80;;;;;;4976455;28;20311;-72
2022/03/24 11:08:51;;;;;;;27.90;21.30;;;23.00;52.20;;;;;;4957482;28;20252;-71
2022/03/24 11:11:17;;;;;;;25.92;20.33;;;23.10;51.60;;;;;;4985903;28;20187;-70
2022/03/24 11:13:53;;;;;;;26.52;20.15;;;23.10;53.30;;;;;;4986881;28;20208;-72
2022/03/24 11:16:22;;;;;;;25.73;20.05;;;23.10;52.40;;;;;;4971145;28;20179;-71
2022/03/24 11:18:52;;;;;;;25.10;19.92;;;23.10;52.90;;;;;;4976169;28;20187;-71
2022/03/24 11:21:22;;;;;;;24.58;19.95;;;23.10;53.00;;;;;;4976671;28;20172;-71
2022/03/24 11:23:55;;;;;;;22.58;18.98;;;23.20;52.60;;;;;;4976998;28;20168;-71
2022/03/24 11:26:25;;;;;;;28.58;21.38;;;23.10;51.70;;;;;;4976177;28;20226;-70
2022/03/24 11:28:58;;;;;;;24.10;20.65;;;23.00;51.80;;;;;;4975838;28;20179;-70
2022/03/24 11:31:31;;;;;;;25.05;20.85;;;22.90;51.50;;;;;;4976263;28;20214;-70
2022/03/24 11:34:00;;;;;;;29.95;22.42;;;22.80;51.40;;;;;;4976032;28;20180;-72
2022/03/24 11:36:28;;;;;;;30.40;22.45;;;22.70;51.30;;;;;;4975988;28;20180;-70
2022/03/24 11:38:56;;;;;;;26.05;21.63;;;22.60;50.80;;;;;;4975851;28;20204;-72
2022/03/24 11:41:37;;;;;;;28.13;21.30;;;22.50;51.00;;;;;;4975870;28;20187;-71
2022/03/24 11:44:18;;;;;;;27.73;21.70;;;22.50;50.00;;;;;;4969282;28;20200;-74
2022/03/24 11:46:50;;;;;;;27.80;21.65;;;22.40;49.80;;;;;;4970249;28;20184;-70
2022/03/24 11:49:23;;;;;;;26.92;21.58;;;22.30;49.80;;;;;;4976177;28;20206;-70
2022/03/24 11:52:08;;;;;;;25.20;20.83;;;22.20;50.00;;;;;;4972333;28;20184;-70
2022/03/24 11:54:49;;;;;;;26.65;21.10;;;22.30;49.80;;;;;;4970392;28;20203;-70
2022/03/24 11:57:34;;;;;;;29.65;23.63;;;22.20;49.50;;;;;;4961112;28;20196;-70
2022/03/24 12:00:12;;;;;;;28.02;20.75;;;22.30;46.20;;;;;;4969476;28;20207;-70
2022/03/24 12:02:45;;;;;;;27.88;21.95;;;22.30;48.70;;;;;;4967446;28;20200;-71
2022/03/24 12:05:14;;;;;;;23.35;18.30;;;22.20;48.50;;;;;;4966780;28;20172;-70
2022/03/24 12:07:40;;;;;;;21.77;18.42;;;22.20;48.20;;;;;;4956084;28;20173;-71
2022/03/24 12:10:14;;;;;;;24.27;19.45;;;22.20;48.50;;;;;;4974242;28;20207;-71
2022/03/24 12:13:19;;;;;;;24.85;18.52;;;22.20;47.30;;;;;;4979188;28;20189;-70
2022/03/24 12:16:07;;;;;;;28.20;20.35;;;22.20;47.40;;;;;;4964226;28;20207;-70
2022/03/24 12:18:45;;;;;;;24.98;20.52;;;22.30;48.20;;;;;;4974998;28;20212;-70
2022/03/24 12:21:21;;;;;;;24.90;18.98;;;22.40;46.60;;;;;;4959120;28;20196;-70
2022/03/24 12:24:02;;;;;;;25.80;19.70;;;22.60;47.10;;;;;;4966176;28;20172;-71
2022/03/24 12:26:30;;;;;;;25.20;19.33;;;22.70;45.30;;;;;;4974480;28;20206;-69
2022/03/24 12:29:30;;;;;;;27.33;20.33;;;22.80;48.00;;;;;;4975432;28;20180;-71
2022/03/24 12:32:12;;;;;;;25.52;20.58;;;22.90;46.80;;;;;;4970233;28;20211;-71
2022/03/24 12:34:45;;;;;;;25.00;20.48;;;23.10;47.50;;;;;;4971026;28;20275;-72
2022/03/24 12:37:23;;;;;;;29.35;23.52;;;23.20;47.50;;;;;;4972838;28;20173;-71
2022/03/24 12:40:13;;;;;;;25.40;20.02;;;23.30;45.60;;;;;;4974965;28;20227;-71
2022/03/24 12:42:55;;;;;;;24.42;19.30;;;23.30;47.40;;;;;;4974974;28;20195;-70
2022/03/24 12:45:26;;;;;;;22.52;18.98;;;23.40;47.50;;;;;;4971756;28;20203;-70
2022/03/24 12:47:54;;;;;;;26.60;20.45;;;23.50;47.30;;;;;;4983670;28;20194;-70
2022/03/24 12:50:20;;;;;;;25.73;19.10;;;23.70;47.70;;;;;;4974318;28;20208;-71
2022/03/24 12:53:15;;;;;;;23.63;19.48;;;23.80;46.90;;;;;;4974789;28;20199;-69
2022/03/24 12:55:45;;;;;;;23.15;18.92;;;23.90;44.90;;;;;;4964082;28;20882;-71
2022/03/24 12:58:11;;;;;;;23.27;19.10;;;23.90;46.10;;;;;;4960006;28;20203;-69
2022/03/24 13:00:45;;;;;;;24.95;20.00;;;23.90;45.90;;;;;;4974087;28;20211;-72
2022/03/24 13:03:15;;;;;;;30.15;20.88;;;23.90;45.00;;;;;;4973439;28;20227;-71
2022/03/24 13:05:46;;;;;;;27.88;19.13;;;23.80;44.80;;;;;;4972024;28;20191;-71
2022/03/24 13:08:20;;;;;;;24.60;19.48;;;23.70;45.10;;;;;;4972945;28;20208;-71
2022/03/24 13:10:54;;;;;;;25.30;19.02;;;23.70;44.70;;;;;;4970041;28;20183;-72
2022/03/24 13:13:21;;;;;;;25.67;19.50;;;23.70;43.60;;;;;;4968279;28;20259;-69
2022/03/24 13:15:48;;;;;;;25.15;20.42;;;23.70;44.90;;;;;;4974509;28;20246;-70
2022/03/24 13:18:14;;;;;;;23.50;19.05;;;23.80;44.40;;;;;;4974715;28;20207;-69
2022/03/24 13:20:41;;;;;;;22.02;18.50;;;23.80;44.70;;;;;;4974387;28;20261;-70
2022/03/24 13:23:14;;;;;;;22.80;17.65;;;23.90;44.90;;;;;;4973862;28;20236;-71
2022/03/24 13:25:44;;;;;;;20.10;16.20;;;23.90;44.40;;;;;;4974680;28;20160;-72
2022/03/24 13:28:14;;;;;;;19.75;16.48;;;24.10;44.70;;;;;;4974001;28;20211;-72
2022/03/24 13:30:40;;;;;;;20.35;16.58;;;24.10;44.70;;;;;;4974432;28;20284;-71
2022/03/24 13:33:10;;;;;;;23.98;17.05;;;24.30;44.20;;;;;;4974856;28;20231;-70